createdAt,value
2023-07-24T00:02:15.734Z,99271.47
2023-07-24T00:04:46.093Z,99277.28
2023-07-24T00:07:13.548Z,99269.28
2023-07-24T00:09:41.055Z,99272.84
2023-07-24T00:12:09.272Z,99267.31
2023-07-24T00:14:38.100Z,99275.59
2023-07-24T00:17:06.097Z,99271.72
2023-07-24T00:19:33.313Z,99280.19
2023-07-24T00:22:00.553Z,99279.16
2023-07-24T00:24:28.384Z,99283.03
2023-07-24T00:26:55.798Z,99277.72
2023-07-24T00:29:23.009Z,99281.28
2023-07-24T00:31:52.043Z,99283.56
2023-07-24T00:34:19.193Z,99284.97
2023-07-24T00:36:46.404Z,99284.13
2023-07-24T00:39:15.465Z,99277.13
2023-07-24T00:41:43.000Z,99279.34
2023-07-24T00:44:10.403Z,99279.25
2023-07-24T00:46:38.637Z,99279.28
2023-07-24T00:49:07.425Z,99277.63
2023-07-24T00:51:35.177Z,99277.94
2023-07-24T00:54:04.080Z,99275.66
2023-07-24T00:56:33.150Z,99278.75
2023-07-24T00:59:02.598Z,99285.31
2023-07-24T01:01:37.735Z,99282.00
2023-07-24T01:04:08.992Z,99278.19
2023-07-24T01:06:36.244Z,99280.16
2023-07-24T01:09:06.240Z,99282.81
2023-07-24T01:11:41.028Z,99285.88
2023-07-24T01:14:13.831Z,99286.72
2023-07-24T01:16:43.548Z,99288.84
2023-07-24T01:19:21.294Z,99293.03
2023-07-24T01:22:09.923Z,99287.47
2023-07-24T01:25:01.469Z,99286.31
2023-07-24T01:27:30.305Z,99298.53
2023-07-24T01:30:00.694Z,99291.56
2023-07-24T01:32:28.389Z,99290.53
2023-07-24T01:34:58.557Z,99296.84
2023-07-24T01:37:27.190Z,99294.44
2023-07-24T01:39:58.138Z,99293.88
2023-07-24T01:42:26.445Z,99297.47
2023-07-24T01:44:56.415Z,99297.19
2023-07-24T01:47:24.297Z,99297.75
2023-07-24T01:49:51.202Z,99288.66
2023-07-24T01:52:18.744Z,99296.19
2023-07-24T01:54:46.135Z,99298.84
2023-07-24T01:57:13.415Z,99289.78
2023-07-24T01:59:40.853Z,99288.38
2023-07-24T02:02:09.941Z,99296.91
2023-07-24T02:04:39.787Z,99287.28
2023-07-24T02:07:06.506Z,99286.09
2023-07-24T02:09:33.764Z,99277.19
2023-07-24T02:12:01.024Z,99277.72
2023-07-24T02:14:28.277Z,99281.09
2023-07-24T02:16:55.583Z,99284.69
2023-07-24T02:19:23.681Z,99287.25
2023-07-24T02:21:51.209Z,99280.00
2023-07-24T02:24:18.633Z,99283.97
2023-07-24T02:26:48.513Z,99284.00
2023-07-24T02:29:15.176Z,99285.91
2023-07-24T02:31:43.330Z,99285.97
2023-07-24T02:34:10.966Z,99289.81
2023-07-24T02:36:39.649Z,99296.16
2023-07-24T02:39:07.165Z,99296.94
2023-07-24T02:41:34.459Z,99299.38
2023-07-24T02:44:03.540Z,99308.19
2023-07-24T02:46:31.361Z,99305.91
2023-07-24T02:48:58.880Z,99312.53
2023-07-24T02:51:26.191Z,99300.09
2023-07-24T02:53:56.245Z,99300.09
2023-07-24T02:56:23.850Z,99307.59
2023-07-24T02:58:51.333Z,99302.91
2023-07-24T03:01:18.732Z,99302.06
2023-07-24T03:03:46.044Z,99304.84
2023-07-24T03:06:13.500Z,99308.09
2023-07-24T03:08:40.717Z,99304.53
2023-07-24T03:11:09.802Z,99304.25
2023-07-24T03:13:37.317Z,99311.44
2023-07-24T03:16:05.052Z,99306.72
2023-07-24T03:18:32.254Z,99308.16
2023-07-24T03:20:59.870Z,99306.25
2023-07-24T03:23:27.218Z,99303.78
2023-07-24T03:25:54.475Z,99302.69
2023-07-24T03:28:28.266Z,99311.78
2023-07-24T03:30:56.259Z,99309.28
2023-07-24T03:33:23.669Z,99308.09
2023-07-24T03:35:51.007Z,99319.47
2023-07-24T03:38:18.224Z,99317.25
2023-07-24T03:40:45.563Z,99320.28
2023-07-24T03:43:20.451Z,99319.78
2023-07-24T03:45:48.726Z,99310.72
2023-07-24T03:48:16.029Z,99317.84
2023-07-24T03:50:43.680Z,99323.63
2023-07-24T03:53:10.855Z,99319.44
2023-07-24T03:55:38.305Z,99322.16
2023-07-24T03:58:05.553Z,99329.34
2023-07-24T04:00:32.841Z,99330.25
2023-07-24T04:03:04.736Z,99332.97
2023-07-24T04:05:32.423Z,99341.84
2023-07-24T04:07:59.650Z,99336.84
2023-07-24T04:10:26.892Z,99344.03
2023-07-24T04:12:53.507Z,99346.78
2023-07-24T04:15:20.800Z,99347.31
2023-07-24T04:17:47.815Z,99347.84
2023-07-24T04:20:16.788Z,99353.16
2023-07-24T04:22:44.016Z,99352.81
2023-07-24T04:25:11.466Z,99359.16
2023-07-24T04:27:38.822Z,99360.31
2023-07-24T04:30:09.824Z,99358.88
2023-07-24T04:32:37.341Z,99361.94
2023-07-24T04:35:05.466Z,99359.50
2023-07-24T04:37:34.193Z,99360.56
2023-07-24T04:40:05.479Z,99367.47
2023-07-24T04:42:35.459Z,99366.69
2023-07-24T04:45:06.800Z,99370.00
2023-07-24T04:47:33.616Z,99368.66
2023-07-24T04:50:00.883Z,99371.16
2023-07-24T04:52:28.236Z,99370.91
2023-07-24T04:54:56.845Z,99375.78
2023-07-24T04:57:24.042Z,99376.06
2023-07-24T04:59:51.463Z,99381.56
2023-07-24T05:02:19.089Z,99384.66
2023-07-24T05:04:45.785Z,99384.66
2023-07-24T05:07:13.255Z,99383.28
2023-07-24T05:09:40.492Z,99381.88
2023-07-24T05:12:10.070Z,99392.41
2023-07-24T05:14:37.226Z,99397.13
2023-07-24T05:17:05.235Z,99393.22
2023-07-24T05:19:32.422Z,99398.50
2023-07-24T05:22:01.862Z,99397.38
2023-07-24T05:24:29.320Z,99403.16
2023-07-24T05:26:59.055Z,99408.94
2023-07-24T05:29:30.321Z,99408.63
2023-07-24T05:31:57.644Z,99413.38
2023-07-24T05:34:25.183Z,99408.16
2023-07-24T05:36:52.602Z,99410.88
2023-07-24T05:39:19.282Z,99415.28
2023-07-24T05:41:48.303Z,99422.75
2023-07-24T05:44:15.512Z,99419.75
2023-07-24T05:46:44.192Z,99416.97
2023-07-24T05:49:14.036Z,99410.94
2023-07-24T05:51:41.263Z,99423.94
2023-07-24T05:54:08.679Z,99425.09
2023-07-24T05:56:36.555Z,99426.41
2023-07-24T05:59:04.882Z,99425.66
2023-07-24T06:01:34.797Z,99424.81
2023-07-24T06:04:04.027Z,99424.19
2023-07-24T06:06:33.878Z,99434.41
2023-07-24T06:09:01.669Z,99429.69
2023-07-24T06:11:29.247Z,99433.31
2023-07-24T06:13:56.560Z,99435.50
2023-07-24T06:16:24.070Z,99437.16
2023-07-24T06:18:53.876Z,99433.81
2023-07-24T06:21:22.526Z,99442.41
2023-07-24T06:23:49.543Z,99444.91
2023-07-24T06:26:16.343Z,99443.19
2023-07-24T06:28:44.511Z,99449.31
2023-07-24T06:31:11.247Z,99447.88
2023-07-24T06:33:38.383Z,99452.31
2023-07-24T06:36:09.819Z,99458.09
2023-07-24T06:38:38.674Z,99453.72
2023-07-24T06:41:05.920Z,99456.16
2023-07-24T06:43:33.134Z,99462.25
2023-07-24T06:46:00.800Z,99461.41
2023-07-24T06:48:27.972Z,99466.66
2023-07-24T06:50:55.201Z,99462.94
2023-07-24T06:53:22.557Z,99466.78
2023-07-24T06:55:51.253Z,99472.88
2023-07-24T06:58:18.471Z,99477.84
2023-07-24T07:00:45.824Z,99474.81
2023-07-24T07:03:13.123Z,99488.09
2023-07-24T07:05:40.367Z,99480.09
2023-07-24T07:08:07.768Z,99484.28
2023-07-24T07:10:35.349Z,99483.34
2023-07-24T07:13:04.065Z,99486.41
2023-07-24T07:15:31.041Z,99487.72
2023-07-24T07:17:58.381Z,99492.19
2023-07-24T07:20:25.913Z,99493.69
2023-07-24T07:22:53.292Z,99490.81
2023-07-24T07:25:20.448Z,99497.72
2023-07-24T07:27:49.475Z,99503.81
2023-07-24T07:30:18.839Z,99508.84
2023-07-24T07:32:46.239Z,99510.00
2023-07-24T07:35:13.420Z,99517.19
2023-07-24T07:37:40.299Z,99503.94
2023-07-24T07:40:08.023Z,99510.88
2023-07-24T07:42:38.283Z,99513.94
2023-07-24T07:45:07.366Z,99512.88
2023-07-24T07:47:35.671Z,99514.56
2023-07-24T07:50:02.426Z,99510.22
2023-07-24T07:52:29.602Z,99503.88
2023-07-24T07:55:00.804Z,99519.09
2023-07-24T07:57:28.188Z,99516.00
2023-07-24T07:59:55.754Z,99511.63
2023-07-24T08:02:22.957Z,99520.19
2023-07-24T08:04:53.904Z,99521.34
2023-07-24T08:07:23.436Z,99520.75
2023-07-24T08:09:53.488Z,99524.38
2023-07-24T08:12:20.842Z,99525.78
2023-07-24T08:14:54.404Z,99541.03
2023-07-24T08:17:22.050Z,99528.03
2023-07-24T08:19:48.941Z,99535.50
2023-07-24T08:22:17.057Z,99542.50
2023-07-24T08:24:44.422Z,99543.88
2023-07-24T08:27:14.914Z,99533.59
2023-07-24T08:29:45.366Z,99533.59
2023-07-24T08:32:12.229Z,99547.94
2023-07-24T08:34:39.047Z,99542.03
2023-07-24T08:37:06.989Z,99550.31
2023-07-24T08:39:35.260Z,99553.38
2023-07-24T08:42:09.968Z,99556.19
2023-07-24T08:44:37.791Z,99554.59
2023-07-24T08:47:07.852Z,99555.34
2023-07-24T08:49:38.429Z,99557.78
2023-07-24T08:52:07.056Z,99557.09
2023-07-24T08:54:36.963Z,99561.88
2023-07-24T08:57:05.361Z,99555.00
2023-07-24T08:59:33.399Z,99556.88
2023-07-24T09:02:00.129Z,99555.56
2023-07-24T09:04:27.701Z,99562.53
2023-07-24T09:06:54.701Z,99559.69
2023-07-24T09:09:21.531Z,99559.56
2023-07-24T09:11:51.247Z,99563.25
2023-07-24T09:14:25.561Z,99565.19
2023-07-24T09:17:06.239Z,99570.66
2023-07-24T09:19:33.685Z,99572.16
2023-07-24T09:22:10.646Z,99569.97
2023-07-24T09:24:37.496Z,99559.16
2023-07-24T09:27:07.961Z,99561.38
2023-07-24T09:29:35.708Z,99560.63
2023-07-24T09:32:03.526Z,99566.97
2023-07-24T09:34:30.830Z,99576.34
2023-07-24T09:36:57.784Z,99573.88
2023-07-24T09:39:30.039Z,99572.56
2023-07-24T09:42:04.817Z,99564.00
2023-07-24T09:44:33.992Z,99572.00
2023-07-24T09:47:25.868Z,99578.47
2023-07-24T09:49:50.314Z,99573.81
2023-07-24T09:52:19.988Z,99584.44
2023-07-24T09:54:55.218Z,99576.72
2023-07-24T09:57:27.321Z,99587.84
2023-07-24T09:59:58.357Z,99589.84
2023-07-24T10:02:25.955Z,99594.38
2023-07-24T10:04:54.266Z,99594.06
2023-07-24T10:07:22.032Z,99595.56
2023-07-24T10:09:49.749Z,99598.53
2023-07-24T10:12:17.976Z,99586.88
2023-07-24T10:14:46.826Z,99593.00
2023-07-24T10:17:17.478Z,99607.09
2023-07-24T10:19:46.649Z,99600.47
2023-07-24T10:22:18.624Z,99601.59
2023-07-24T10:24:45.584Z,99600.78
2023-07-24T10:27:13.367Z,99600.81
2023-07-24T10:29:40.194Z,99602.75
2023-07-24T10:32:19.726Z,99608.25
2023-07-24T10:34:56.283Z,99615.50
2023-07-24T10:37:33.333Z,99608.69
2023-07-24T10:40:00.041Z,99609.09
2023-07-24T10:42:27.260Z,99607.88
2023-07-24T10:45:07.106Z,99606.97
2023-07-24T10:47:36.067Z,99614.16
2023-07-24T10:50:03.230Z,99617.97
2023-07-24T10:52:31.057Z,99613.44
2023-07-24T10:55:01.106Z,99615.59
2023-07-24T10:57:28.505Z,99612.78
2023-07-24T10:59:55.953Z,99618.19
2023-07-24T11:02:23.035Z,99623.16
2023-07-24T11:04:51.987Z,99619.25
2023-07-24T11:07:19.665Z,99621.00
2023-07-24T11:09:46.998Z,99626.47
2023-07-24T11:12:15.276Z,99614.41
2023-07-24T11:14:52.500Z,99612.66
2023-07-24T11:17:19.657Z,99617.50
2023-07-24T11:19:46.723Z,99620.28
2023-07-24T11:22:15.305Z,99615.38
2023-07-24T11:24:48.713Z,99617.16
2023-07-24T11:27:17.010Z,99617.88
2023-07-24T11:29:49.529Z,99615.88
2023-07-24T11:32:19.635Z,99624.53
2023-07-24T11:34:49.198Z,99628.34
2023-07-24T11:37:18.617Z,99623.00
2023-07-24T11:39:56.332Z,99631.69
2023-07-24T11:42:26.479Z,99635.06
2023-07-24T11:44:53.935Z,99625.44
2023-07-24T11:47:21.746Z,99636.47
2023-07-24T11:49:57.965Z,99635.41
2023-07-24T11:52:26.889Z,99643.63
2023-07-24T11:55:00.164Z,99640.03
2023-07-24T11:57:27.545Z,99639.00
2023-07-24T11:59:54.770Z,99635.44
2023-07-24T12:02:22.275Z,99639.06
2023-07-24T12:04:55.333Z,99638.63
2023-07-24T12:07:22.084Z,99632.41
2023-07-24T12:09:53.410Z,99634.28
2023-07-24T12:12:20.364Z,99635.59
2023-07-24T12:14:47.692Z,99642.56
2023-07-24T12:17:19.828Z,99640.03
2023-07-24T12:19:47.904Z,99639.75
2023-07-24T12:22:15.184Z,99645.13
2023-07-24T12:24:42.537Z,99644.16
2023-07-24T12:27:11.602Z,99648.69
2023-07-24T12:29:38.898Z,99651.34
2023-07-24T12:32:06.862Z,99652.31
2023-07-24T12:34:33.552Z,99660.41
2023-07-24T12:37:00.943Z,99653.41
2023-07-24T12:39:28.337Z,99660.94
2023-07-24T12:41:55.075Z,99648.59
2023-07-24T12:44:24.413Z,99648.88
2023-07-24T12:46:51.702Z,99648.00
2023-07-24T12:49:18.970Z,99648.44
2023-07-24T12:51:46.464Z,99647.50
2023-07-24T12:54:14.547Z,99638.69
2023-07-24T12:56:51.102Z,99638.50
2023-07-24T12:59:18.678Z,99641.34
2023-07-24T13:01:47.715Z,99641.22
2023-07-24T13:04:18.066Z,99639.34
2023-07-24T13:06:45.425Z,99644.47
2023-07-24T13:09:12.804Z,99644.91
2023-07-24T13:11:40.286Z,99639.72
2023-07-24T13:14:07.506Z,99640.41
2023-07-24T13:16:34.945Z,99645.31
2023-07-24T13:19:03.626Z,99635.44
2023-07-24T13:21:31.042Z,99653.44
2023-07-24T13:23:58.314Z,99645.38
2023-07-24T13:26:25.515Z,99652.06
2023-07-24T13:28:52.620Z,99643.34
2023-07-24T13:31:20.987Z,99646.13
2023-07-24T13:33:48.454Z,99643.13
2023-07-24T13:36:17.197Z,99641.97
2023-07-24T13:38:44.681Z,99640.66
2023-07-24T13:41:11.883Z,99637.59
2023-07-24T13:43:39.139Z,99636.53
2023-07-24T13:46:06.657Z,99634.19
2023-07-24T13:48:34.016Z,99641.16
2023-07-24T13:51:00.873Z,99643.00
2023-07-24T13:53:29.293Z,99639.69
2023-07-24T13:55:56.772Z,99639.34
2023-07-24T13:58:24.745Z,99630.88
2023-07-24T14:00:51.512Z,99634.47
2023-07-24T14:03:18.223Z,99627.84
2023-07-24T14:05:45.029Z,99628.22
2023-07-24T14:08:11.876Z,99645.66
2023-07-24T14:10:40.569Z,99641.38
2023-07-24T14:13:07.282Z,99633.88
2023-07-24T14:15:34.035Z,99642.97
2023-07-24T14:18:00.761Z,99635.75
2023-07-24T14:20:27.612Z,99636.31
2023-07-24T14:22:54.284Z,99626.56
2023-07-24T14:25:22.087Z,99629.47
2023-07-24T14:27:50.428Z,99626.72
2023-07-24T14:30:17.986Z,99629.97
2023-07-24T14:32:45.819Z,99624.06
2023-07-24T14:35:13.414Z,99628.81
2023-07-24T14:37:40.117Z,99634.22
2023-07-24T14:40:08.026Z,99631.59
2023-07-24T14:42:35.350Z,99635.41
2023-07-24T14:45:03.781Z,99636.13
2023-07-24T14:47:34.110Z,99643.47
2023-07-24T14:50:03.233Z,99639.88
2023-07-24T14:52:30.629Z,99635.91
2023-07-24T14:54:58.111Z,99637.06
2023-07-24T14:57:26.551Z,99637.19
2023-07-24T14:59:53.696Z,99639.53
2023-07-24T15:02:21.851Z,99633.00
2023-07-24T15:04:48.632Z,99636.81
2023-07-24T15:07:15.368Z,99642.66
2023-07-24T15:09:43.272Z,99637.00
2023-07-24T15:12:10.111Z,99630.22
2023-07-24T15:14:36.953Z,99643.25
2023-07-24T15:17:03.858Z,99641.28
2023-07-24T15:19:31.898Z,99647.31
2023-07-24T15:21:58.539Z,99639.50
2023-07-24T15:24:25.531Z,99637.53
2023-07-24T15:26:52.168Z,99637.78
2023-07-24T15:29:19.915Z,99636.69
2023-07-24T15:31:47.106Z,99640.88
2023-07-24T15:34:13.909Z,99644.31
2023-07-24T15:36:41.994Z,99639.03
2023-07-24T15:39:08.700Z,99639.91
2023-07-24T15:41:35.330Z,99637.69
2023-07-24T15:44:02.017Z,99644.25
2023-07-24T15:46:28.861Z,99633.66
2023-07-24T15:48:56.635Z,99640.28
2023-07-24T15:51:23.412Z,99640.47
2023-07-24T15:53:51.449Z,99634.97
2023-07-24T15:56:18.733Z,99633.25
2023-07-24T15:58:47.229Z,99641.75
2023-07-24T16:01:14.495Z,99639.31
2023-07-24T16:03:41.200Z,99640.75
2023-07-24T16:06:11.898Z,99641.28
2023-07-24T16:08:38.703Z,99636.75
2023-07-24T16:11:06.857Z,99645.22
2023-07-24T16:13:37.190Z,99655.59
2023-07-24T16:16:05.062Z,99654.06
2023-07-24T16:18:32.006Z,99654.34
2023-07-24T16:23:30.383Z,99656.78
2023-07-24T16:26:00.127Z,99659.88
2023-07-24T16:28:31.894Z,99652.53
2023-07-24T16:30:59.344Z,99662.47
2023-07-24T16:33:26.557Z,99655.81
2023-07-24T16:35:54.147Z,99658.63
2023-07-24T16:38:21.341Z,99658.56
2023-07-24T16:40:48.700Z,99656.56
2023-07-24T16:43:19.584Z,99656.19
2023-07-24T16:46:04.147Z,99661.22
2023-07-24T16:48:32.383Z,99656.16
2023-07-24T16:50:59.694Z,99656.91
2023-07-24T16:53:27.108Z,99660.59
2023-07-24T16:55:54.547Z,99661.13
2023-07-24T16:58:21.835Z,99660.13
2023-07-24T17:00:53.464Z,99668.16
2023-07-24T17:03:21.199Z,99679.50
2023-07-24T17:05:47.991Z,99672.94
2023-07-24T17:08:14.680Z,99674.94
2023-07-24T17:10:43.920Z,99680.56
2023-07-24T17:13:11.196Z,99679.06
2023-07-24T17:15:38.658Z,99685.22
2023-07-24T17:18:07.028Z,99673.28
2023-07-24T17:20:34.894Z,99673.28
2023-07-24T17:23:01.834Z,99674.78
2023-07-24T17:25:28.583Z,99684.09
2023-07-24T17:27:56.169Z,99677.16
2023-07-24T17:30:24.009Z,99682.19
2023-07-24T17:32:51.807Z,99679.06
2023-07-24T17:35:20.509Z,99678.50
2023-07-24T17:37:47.790Z,99684.84
2023-07-24T17:40:26.413Z,99677.66
2023-07-24T17:42:53.160Z,99683.25
2023-07-24T17:45:19.929Z,99681.34
2023-07-24T17:47:46.682Z,99682.56
2023-07-24T17:50:13.623Z,99688.91
2023-07-24T17:52:41.650Z,99689.53
2023-07-24T17:55:08.895Z,99685.69
2023-07-24T17:57:35.762Z,99685.75
2023-07-24T18:00:02.953Z,99693.00
2023-07-24T18:02:30.463Z,99691.84
2023-07-24T18:04:57.659Z,99692.13
2023-07-24T18:07:24.904Z,99694.09
2023-07-24T18:09:53.810Z,99688.59
2023-07-24T18:12:21.546Z,99692.72
2023-07-24T18:14:48.848Z,99694.59
2023-07-24T18:17:16.208Z,99687.38
2023-07-24T18:19:43.803Z,99693.53
2023-07-24T18:22:14.278Z,99696.47
2023-07-24T18:24:41.045Z,99698.69
2023-07-24T18:27:11.614Z,99691.53
2023-07-24T18:29:41.673Z,99699.44
2023-07-24T18:32:09.754Z,99691.22
2023-07-24T18:34:37.003Z,99699.53
2023-07-24T18:37:05.013Z,99697.72
2023-07-24T18:39:31.658Z,99699.91
2023-07-24T18:41:58.390Z,99699.91
2023-07-24T18:44:27.107Z,99714.09
2023-07-24T18:46:53.860Z,99702.56
2023-07-24T18:49:20.627Z,99708.09
2023-07-24T18:51:47.827Z,99711.44
2023-07-24T18:54:15.595Z,99706.06
2023-07-24T18:56:43.305Z,99713.63
2023-07-24T18:59:10.563Z,99716.78
2023-07-24T19:01:42.703Z,99720.38
2023-07-24T19:04:09.351Z,99706.78
2023-07-24T19:06:38.530Z,99714.53
2023-07-24T19:09:06.163Z,99715.97
2023-07-24T19:11:36.415Z,99721.75
2023-07-24T19:14:03.635Z,99715.16
2023-07-24T19:16:36.247Z,99720.09
2023-07-24T19:19:05.379Z,99720.00
2023-07-24T19:21:32.970Z,99721.69
2023-07-24T19:24:00.335Z,99722.34
2023-07-24T19:26:28.142Z,99722.41
2023-07-24T19:28:55.583Z,99726.22
2023-07-24T19:31:22.984Z,99727.63
2023-07-24T19:33:50.235Z,99726.16
2023-07-24T19:36:18.914Z,99722.03
2023-07-24T19:38:46.198Z,99727.50
2023-07-24T19:41:13.476Z,99736.13
2023-07-24T19:43:41.020Z,99728.19
2023-07-24T19:46:08.935Z,99727.69
2023-07-24T19:48:38.583Z,99727.94
2023-07-24T19:51:05.789Z,99729.63
2023-07-24T19:53:34.511Z,99727.69
2023-07-24T19:56:01.950Z,99734.91
2023-07-24T19:58:34.208Z,99729.66
2023-07-24T20:01:02.351Z,99741.28
2023-07-24T20:03:30.016Z,99739.06
2023-07-24T20:05:59.284Z,99732.97
2023-07-24T20:08:28.298Z,99735.72
2023-07-24T20:11:06.218Z,99734.06
2023-07-24T20:13:33.888Z,99737.97
2023-07-24T20:16:01.228Z,99739.59
2023-07-24T20:18:28.719Z,99735.09
2023-07-24T20:20:56.304Z,99738.41
2023-07-24T20:23:26.424Z,99743.97
2023-07-24T20:25:53.678Z,99745.06
2023-07-24T20:28:22.424Z,99743.41
2023-07-24T20:30:49.853Z,99737.25
2023-07-24T20:33:24.790Z,99746.94
2023-07-24T20:35:52.011Z,99744.72
2023-07-24T20:38:23.533Z,99748.06
2023-07-24T20:40:51.161Z,99752.19
2023-07-24T20:43:18.495Z,99751.59
2023-07-24T20:45:50.209Z,99747.75
2023-07-24T20:48:17.456Z,99746.63
2023-07-24T20:50:44.559Z,99747.16
2023-07-24T20:53:11.284Z,99749.63
2023-07-24T20:55:38.631Z,99748.53
2023-07-24T20:58:05.958Z,99745.09
2023-07-24T21:00:32.981Z,99749.75
2023-07-24T21:03:04.440Z,99754.16
2023-07-24T21:05:37.540Z,99751.34
2023-07-24T21:08:05.370Z,99748.84
2023-07-24T21:10:32.837Z,99748.84
2023-07-24T21:13:00.286Z,99750.78
2023-07-24T21:15:27.483Z,99751.84
2023-07-24T21:17:54.987Z,99744.66
2023-07-24T21:20:23.013Z,99754.84
2023-07-24T21:22:49.713Z,99743.50
2023-07-24T21:25:16.496Z,99760.09
2023-07-24T21:27:43.197Z,99755.63
2023-07-24T21:30:11.136Z,99759.69
2023-07-24T21:32:38.066Z,99759.56
2023-07-24T21:35:06.335Z,99755.38
2023-07-24T21:37:34.849Z,99760.38
2023-07-24T21:40:02.231Z,99758.94
2023-07-24T21:42:28.924Z,99765.25
2023-07-24T21:44:56.218Z,99763.31
2023-07-24T21:47:23.034Z,99766.66
2023-07-24T21:49:52.145Z,99763.56
2023-07-24T21:52:19.555Z,99771.34
2023-07-24T21:54:48.366Z,99774.31
2023-07-24T21:57:15.821Z,99769.94
2023-07-24T21:59:42.675Z,99775.47
2023-07-24T22:02:10.158Z,99777.06
2023-07-24T22:04:37.361Z,99769.91
2023-07-24T22:07:07.570Z,99777.72
2023-07-24T22:09:34.958Z,99775.25
2023-07-24T22:12:03.324Z,99779.31
2023-07-24T22:14:30.513Z,99779.31
2023-07-24T22:16:58.247Z,99786.00
2023-07-24T22:19:25.030Z,99786.81
2023-07-24T22:21:51.819Z,99782.63
2023-07-24T22:24:19.184Z,99778.47
2023-07-24T22:26:46.036Z,99779.19
2023-07-24T22:29:14.111Z,99779.72
2023-07-24T22:31:41.443Z,99782.50
2023-07-24T22:34:11.197Z,99775.66
2023-07-24T22:36:38.763Z,99776.19
2023-07-24T22:39:06.294Z,99780.28
2023-07-24T22:41:33.801Z,99777.28
2023-07-24T22:44:01.523Z,99776.66
2023-07-24T22:46:30.333Z,99778.59
2023-07-24T22:48:57.538Z,99784.41
2023-07-24T22:51:25.022Z,99782.19
2023-07-24T22:53:52.184Z,99776.00
2023-07-24T22:56:19.637Z,99789.72
2023-07-24T23:01:40.442Z,99783.19
2023-07-24T23:04:07.692Z,99776.19
2023-07-24T23:06:34.554Z,99774.81
2023-07-24T23:09:02.055Z,99776.47
2023-07-24T23:11:28.986Z,99769.81
2023-07-24T23:13:56.200Z,99778.06
2023-07-24T23:16:23.830Z,99779.16
2023-07-24T23:18:52.309Z,99779.94
2023-07-24T23:21:18.924Z,99774.91
2023-07-24T23:23:46.379Z,99773.56
2023-07-24T23:26:15.915Z,99777.34
2023-07-24T23:28:43.143Z,99780.19
2023-07-24T23:31:10.696Z,99776.84
2023-07-24T23:33:38.131Z,99773.84
2023-07-24T23:36:09.393Z,99774.78
2023-07-24T23:38:36.521Z,99777.78
2023-07-24T23:41:05.778Z,99778.03
2023-07-24T23:43:34.507Z,99773.00
2023-07-24T23:46:04.224Z,99771.94
2023-07-24T23:48:31.041Z,99770.19
2023-07-24T23:50:57.991Z,99766.91
2023-07-24T23:53:26.662Z,99769.16
2023-07-24T23:55:53.316Z,99776.78
2023-07-24T23:58:20.099Z,99774.97
